Terminal Aerodrome Forecast
Issued by NWS

Home | Current Version | Previous Version | Text Only | Print | Product List | Glossary Off
Versions: 1 2 3 4 5 6 7 8 9 10 11 12 13 14 15 16 17 18 19 20 21 22 23 24 25 26 27 28 29 30 31 32 33 34 35

000
FTUS43 KGRB 111120
TAFRHI
TAF
KRHI 111120Z 1112/1212 28005KT P6SM BKN025
     FM111400 27007KT P6SM SCT025
     FM112100 25006KT P6SM BKN080
     FM120400 26007KT P6SM BKN035
     FM120800 29008G15KT P6SM -SN BKN020 OVC035=

USA.gov is the U.S. government's official web portal to all federal, state and local government web resources and services.